Time;durP1;ratioP1;P1;durP2;ratioP2;P2;SDS_P1;SDS_P2;PMS_P1;PMS_P2;Temp;Humidity;BMP_temperature;BMP_pressure;BME280_temperature;BME280_humidity;BME280_pressure;Samples;Min_cycle;Max_cycle;Signal;HPM_P1;HPM_P2
2023/08/08 00:00:44;;;;;;;7.10;1.88;;;18.40;99.50;;;;;;5075564;28;20024;-68
2023/08/08 00:03:09;;;;;;;4.75;1.70;;;18.30;99.60;;;;;;5075613;28;20070;-74
2023/08/08 00:05:35;;;;;;;6.13;1.80;;;18.30;99.70;;;;;;5075657;28;20029;-69
2023/08/08 00:08:01;;;;;;;5.63;1.80;;;18.20;99.70;;;;;;5075559;28;20046;-70
2023/08/08 00:10:26;;;;;;;4.68;1.75;;;18.20;99.90;;;;;;5075418;28;20025;-74
2023/08/08 00:12:52;;;;;;;5.97;1.77;;;18.20;99.90;;;;;;5075519;28;20020;-69
2023/08/08 00:15:17;;;;;;;5.80;1.67;;;18.20;99.90;;;;;;5074976;28;20071;-72
2023/08/08 00:17:43;;;;;;;7.25;2.00;;;18.20;99.90;;;;;;5075244;28;20025;-72
2023/08/08 00:20:09;;;;;;;6.18;1.90;;;18.10;99.90;;;;;;5075143;28;20043;-71
2023/08/08 00:22:35;;;;;;;6.93;2.00;;;18.20;99.90;;;;;;5074309;28;20055;-68
2023/08/08 00:25:01;;;;;;;10.02;2.50;;;18.20;99.90;;;;;;5075185;28;20045;-68
2023/08/08 00:27:26;;;;;;;9.13;2.78;;;18.10;99.90;;;;;;5075257;28;20473;-68
2023/08/08 00:29:53;;;;;;;6.70;2.20;;;18.20;99.90;;;;;;5074858;28;20150;-68
2023/08/08 00:32:19;;;;;;;7.57;2.28;;;18.10;99.90;;;;;;5075110;28;20031;-68
2023/08/08 00:34:44;;;;;;;9.25;2.58;;;18.10;99.90;;;;;;5074843;28;20029;-71
2023/08/08 00:37:10;;;;;;;9.15;2.70;;;18.10;99.90;;;;;;5075060;28;20073;-75
2023/08/08 00:39:35;;;;;;;5.25;2.30;;;18.00;99.90;;;;;;5075018;28;20410;-69
2023/08/08 00:42:02;;;;;;;10.00;2.38;;;18.00;99.90;;;;;;5074851;28;20017;-68
2023/08/08 00:44:27;;;;;;;8.35;2.25;;;18.00;99.90;;;;;;5074549;28;20024;-69
2023/08/08 00:46:53;;;;;;;8.32;2.53;;;18.00;99.90;;;;;;5074643;28;20043;-69
2023/08/08 00:49:19;;;;;;;10.77;2.63;;;18.00;99.90;;;;;;5074542;28;20050;-67
2023/08/08 00:51:45;;;;;;;10.00;2.63;;;18.00;99.90;;;;;;5074916;28;20374;-68
2023/08/08 00:54:11;;;;;;;7.00;2.28;;;17.90;99.90;;;;;;5074592;28;20082;-71
2023/08/08 00:56:37;;;;;;;6.00;2.63;;;17.90;99.90;;;;;;5074815;28;20023;-69
2023/08/08 00:59:03;;;;;;;7.50;2.33;;;17.90;99.90;;;;;;5074459;28;20024;-68
2023/08/08 01:01:29;;;;;;;7.82;2.10;;;17.90;99.90;;;;;;5074360;28;20021;-71
2023/08/08 01:03:54;;;;;;;11.00;2.50;;;17.90;99.90;;;;;;5074501;28;20032;-70
2023/08/08 01:06:25;;;;;;;10.63;3.13;;;17.90;99.90;;;;;;5074219;28;20013;-68
2023/08/08 01:08:57;;;;;;;8.25;2.70;;;17.90;99.90;;;;;;5074611;28;20021;-72
2023/08/08 01:11:25;;;;;;;7.75;2.78;;;17.90;99.90;;;;;;5074126;28;20024;-68
2023/08/08 01:13:53;;;;;;;8.55;2.60;;;17.80;99.90;;;;;;5074043;28;20119;-68
2023/08/08 01:16:20;;;;;;;8.18;2.95;;;17.80;99.90;;;;;;5073520;28;20017;-68
2023/08/08 01:18:48;;;;;;;6.47;2.80;;;17.80;99.90;;;;;;5074312;28;20039;-67
2023/08/08 01:21:16;;;;;;;10.80;2.55;;;17.80;99.90;;;;;;5073870;28;20025;-70
2023/08/08 01:24:15;;;;;;;15.65;2.90;;;17.80;99.90;;;;;;5074176;28;20493;-68
2023/08/08 01:26:41;;;;;;;7.32;3.10;;;17.80;99.90;;;;;;5072519;28;20029;-68
2023/08/08 01:29:06;;;;;;;8.65;2.85;;;17.80;99.90;;;;;;5074073;28;20066;-69
2023/08/08 01:31:32;;;;;;;7.63;3.05;;;17.80;99.90;;;;;;5073941;28;20452;-68
2023/08/08 01:33:57;;;;;;;7.90;3.03;;;17.70;99.90;;;;;;5073595;28;20040;-68
2023/08/08 01:36:29;;;;;;;9.10;2.90;;;17.80;99.90;;;;;;5073647;28;20031;-70
2023/08/08 01:39:03;;;;;;;8.77;3.10;;;17.70;99.90;;;;;;5073878;28;20024;-70
2023/08/08 01:41:32;;;;;;;10.50;3.20;;;17.70;99.90;;;;;;5073294;28;20039;-72
2023/08/08 01:43:59;;;;;;;12.73;3.53;;;17.70;99.90;;;;;;5073763;28;20477;-69
2023/08/08 01:46:26;;;;;;;9.88;3.17;;;17.70;99.90;;;;;;5071992;28;20024;-70
2023/08/08 01:48:52;;;;;;;10.30;2.97;;;17.70;99.90;;;;;;5068827;28;20029;-71
2023/08/08 01:51:17;;;;;;;10.68;3.05;;;17.60;99.90;;;;;;5072227;28;20029;-69
2023/08/08 01:53:43;;;;;;;9.18;3.03;;;17.60;99.90;;;;;;5070798;28;20037;-68
2023/08/08 01:56:08;;;;;;;12.25;3.25;;;17.60;99.90;;;;;;5072846;28;20040;-70
2023/08/08 01:58:34;;;;;;;10.05;3.22;;;17.60;99.90;;;;;;5073482;28;20426;-71
2023/08/08 02:01:00;;;;;;;6.57;2.80;;;17.50;99.90;;;;;;5073536;28;20023;-70
2023/08/08 02:03:25;;;;;;;7.95;2.97;;;17.60;99.90;;;;;;5073470;28;20526;-72
2023/08/08 02:05:51;;;;;;;7.95;2.97;;;17.50;99.90;;;;;;5073107;28;20020;-69
2023/08/08 02:08:18;;;;;;;12.07;3.55;;;17.50;99.90;;;;;;5073163;28;20066;-68
2023/08/08 02:10:43;;;;;;;10.52;3.05;;;17.50;99.90;;;;;;5073121;28;20497;-69
2023/08/08 02:13:09;;;;;;;10.57;3.58;;;17.50;99.90;;;;;;5073213;28;20116;-68
2023/08/08 02:15:34;;;;;;;12.48;3.80;;;17.40;99.90;;;;;;5073243;28;20036;-68
2023/08/08 02:18:00;;;;;;;12.32;3.25;;;17.40;99.90;;;;;;5073257;28;20531;-68
2023/08/08 02:20:26;;;;;;;9.15;3.10;;;17.50;99.90;;;;;;5073280;28;20047;-69
2023/08/08 02:22:52;;;;;;;10.20;3.30;;;17.50;99.90;;;;;;5073123;28;20064;-68
2023/08/08 02:25:18;;;;;;;11.80;3.97;;;17.50;99.90;;;;;;5072944;28;20529;-68
2023/08/08 02:27:43;;;;;;;14.07;3.92;;;17.40;99.90;;;;;;5073031;28;20036;-68
2023/08/08 02:30:09;;;;;;;11.80;3.83;;;17.40;99.90;;;;;;5073113;28;20028;-68
2023/08/08 02:32:35;;;;;;;9.43;2.88;;;17.40;99.90;;;;;;5072985;28;20059;-68
2023/08/08 02:35:01;;;;;;;11.50;3.83;;;17.40;99.90;;;;;;5073015;28;20064;-68
2023/08/08 02:37:26;;;;;;;12.52;3.47;;;17.40;99.90;;;;;;5072757;28;20468;-68
2023/08/08 02:39:52;;;;;;;10.45;3.75;;;17.40;99.90;;;;;;5072952;28;20028;-67
2023/08/08 02:42:17;;;;;;;12.82;3.35;;;17.30;99.90;;;;;;5071605;28;20020;-68
2023/08/08 02:44:43;;;;;;;12.32;4.07;;;17.30;99.90;;;;;;5073007;28;20488;-69
2023/08/08 02:47:09;;;;;;;11.35;3.88;;;17.30;99.90;;;;;;5076738;28;20114;-68
2023/08/08 02:49:34;;;;;;;10.43;3.53;;;17.30;99.90;;;;;;5077006;28;20029;-68
2023/08/08 02:52:01;;;;;;;12.50;3.92;;;17.30;99.90;;;;;;5076932;28;20054;-68
2023/08/08 02:54:27;;;;;;;10.07;3.20;;;17.30;99.90;;;;;;5076411;28;20075;-68
2023/08/08 02:56:54;;;;;;;11.45;3.85;;;17.30;99.90;;;;;;5075494;28;20024;-72
2023/08/08 02:59:20;;;;;;;7.70;3.65;;;17.30;99.90;;;;;;5076962;28;20044;-74
2023/08/08 03:01:47;;;;;;;10.82;3.45;;;17.20;99.90;;;;;;5076833;28;20086;-70
2023/08/08 03:04:12;;;;;;;7.82;3.08;;;17.20;99.90;;;;;;5076724;28;20032;-69
2023/08/08 03:06:38;;;;;;;8.15;2.90;;;17.20;99.90;;;;;;5075337;28;20503;-74
2023/08/08 03:09:05;;;;;;;9.63;3.55;;;17.20;99.90;;;;;;5076324;28;20104;-71
2023/08/08 03:11:30;;;;;;;13.10;3.88;;;17.20;99.90;;;;;;5076865;28;20363;-68
2023/08/08 03:13:56;;;;;;;12.68;3.50;;;17.20;99.90;;;;;;5076476;28;20500;-69
2023/08/08 03:16:21;;;;;;;11.27;3.63;;;17.20;99.90;;;;;;5076602;28;20056;-72
2023/08/08 03:18:47;;;;;;;13.50;4.10;;;17.20;99.90;;;;;;5076341;28;20020;-68
2023/08/08 03:21:13;;;;;;;7.85;3.35;;;17.20;99.90;;;;;;5076452;28;20081;-69
2023/08/08 03:23:38;;;;;;;9.05;3.22;;;17.20;99.90;;;;;;5076020;28;20031;-68
2023/08/08 03:26:04;;;;;;;16.35;4.50;;;17.10;99.90;;;;;;5076292;28;20118;-68
2023/08/08 03:28:29;;;;;;;12.68;4.13;;;17.10;99.90;;;;;;5076161;28;20020;-67
2023/08/08 03:30:55;;;;;;;13.15;4.13;;;17.10;99.90;;;;;;5076265;28;20028;-68
2023/08/08 03:33:21;;;;;;;12.98;3.90;;;17.10;99.90;;;;;;5075960;28;20089;-68
2023/08/08 03:35:46;;;;;;;12.23;3.42;;;17.10;99.90;;;;;;5076209;28;20028;-68
2023/08/08 03:38:12;;;;;;;13.73;4.25;;;17.10;99.90;;;;;;5075772;28;20029;-68
2023/08/08 03:40:37;;;;;;;14.07;4.40;;;17.10;99.90;;;;;;5076071;28;20107;-68
2023/08/08 03:43:03;;;;;;;12.50;3.70;;;17.10;99.90;;;;;;5076118;28;20031;-68
2023/08/08 03:45:29;;;;;;;13.45;4.10;;;17.00;99.90;;;;;;5075976;28;20465;-68
2023/08/08 03:47:54;;;;;;;11.07;3.65;;;17.00;99.90;;;;;;5074461;28;20027;-68
2023/08/08 03:50:20;;;;;;;13.77;4.53;;;17.00;99.90;;;;;;5075907;28;20029;-67
2023/08/08 03:52:45;;;;;;;8.73;3.38;;;17.00;99.90;;;;;;5075592;28;20476;-68
2023/08/08 03:55:11;;;;;;;13.10;4.20;;;17.00;99.90;;;;;;5075630;28;20036;-68
2023/08/08 03:57:37;;;;;;;14.80;3.83;;;17.00;99.90;;;;;;5075651;28;20017;-68
2023/08/08 04:00:04;;;;;;;11.88;4.03;;;17.00;99.90;;;;;;5075775;28;20468;-68
2023/08/08 04:02:29;;;;;;;17.67;4.15;;;17.00;99.90;;;;;;5075747;28;20035;-67
2023/08/08 04:04:55;;;;;;;12.25;4.30;;;17.00;99.90;;;;;;5075508;28;20024;-67
2023/08/08 04:07:20;;;;;;;10.82;5.05;;;16.90;99.90;;;;;;5075607;28;20021;-67
2023/08/08 04:09:46;;;;;;;10.57;4.15;;;16.90;99.90;;;;;;5075492;28;20485;-68
2023/08/08 04:12:12;;;;;;;9.23;4.07;;;16.90;99.90;;;;;;5074363;28;20024;-68
2023/08/08 04:14:37;;;;;;;12.30;4.25;;;16.90;99.90;;;;;;5075245;28;20072;-68
2023/08/08 04:17:04;;;;;;;11.57;3.65;;;16.90;99.90;;;;;;5075536;28;20021;-68
2023/08/08 04:19:30;;;;;;;16.40;4.28;;;16.90;99.90;;;;;;5074145;28;20028;-68
2023/08/08 04:21:55;;;;;;;10.00;3.40;;;16.90;99.90;;;;;;5075277;28;20029;-70
2023/08/08 04:24:21;;;;;;;15.98;4.30;;;16.90;99.90;;;;;;5075273;28;20031;-69
2023/08/08 04:26:46;;;;;;;8.80;3.78;;;16.90;99.90;;;;;;5075350;28;20051;-68
2023/08/08 04:29:12;;;;;;;12.00;4.15;;;16.90;99.90;;;;;;5075193;28;20504;-68
2023/08/08 04:31:38;;;;;;;11.30;3.65;;;17.00;99.90;;;;;;5075189;28;20028;-68
2023/08/08 04:34:03;;;;;;;10.13;4.00;;;16.90;99.90;;;;;;5074911;28;20111;-68
2023/08/08 04:36:29;;;;;;;10.13;4.13;;;16.90;99.90;;;;;;5074716;28;20031;-68
2023/08/08 04:38:55;;;;;;;10.65;4.10;;;16.80;99.90;;;;;;5075020;28;20523;-71
2023/08/08 04:41:21;;;;;;;14.52;4.43;;;16.80;99.90;;;;;;5074997;28;20062;-69
2023/08/08 04:43:47;;;;;;;10.88;3.85;;;16.90;99.90;;;;;;5074918;28;20058;-68
2023/08/08 04:46:12;;;;;;;9.65;3.45;;;17.10;99.90;;;;;;5074856;28;20461;-69
2023/08/08 04:48:38;;;;;;;10.18;3.75;;;17.30;99.90;;;;;;5074714;28;20489;-68
2023/08/08 04:51:08;;;;;;;13.73;3.95;;;17.30;99.90;;;;;;5074373;28;20111;-68
2023/08/08 04:53:33;;;;;;;13.05;3.75;;;17.30;99.90;;;;;;5074716;28;20029;-71
2023/08/08 04:55:59;;;;;;;8.70;3.17;;;17.40;99.90;;;;;;5074512;28;20030;-68
2023/08/08 04:58:24;;;;;;;13.23;4.13;;;17.40;99.90;;;;;;5074827;28;20025;-69
2023/08/08 05:00:54;;;;;;;9.60;3.53;;;17.40;99.90;;;;;;5073883;28;20021;-68
2023/08/08 05:03:20;;;;;;;12.45;3.33;;;17.40;99.90;;;;;;5074453;28;20075;-69
2023/08/08 05:05:46;;;;;;;13.02;4.25;;;17.40;99.90;;;;;;5073548;28;20025;-73
2023/08/08 05:08:15;;;;;;;10.07;4.15;;;17.50;99.90;;;;;;5073855;28;20025;-71
2023/08/08 05:10:40;;;;;;;10.50;3.13;;;17.40;99.90;;;;;;5074249;28;20512;-69
2023/08/08 05:13:06;;;;;;;9.80;3.47;;;17.40;99.90;;;;;;5074384;28;20032;-69
2023/08/08 05:15:31;;;;;;;11.93;3.00;;;17.40;99.90;;;;;;5074032;28;20028;-68
2023/08/08 05:17:57;;;;;;;10.20;3.33;;;17.50;99.90;;;;;;5074119;28;20023;-69
2023/08/08 05:20:23;;;;;;;11.10;3.83;;;17.50;99.90;;;;;;5073921;28;20044;-68
2023/08/08 05:22:48;;;;;;;11.90;4.50;;;17.50;99.90;;;;;;5074245;28;20017;-68
2023/08/08 05:25:14;;;;;;;11.20;3.05;;;17.40;99.90;;;;;;5074190;28;20413;-68
2023/08/08 05:27:40;;;;;;;12.02;3.35;;;17.40;99.90;;;;;;5074085;28;20519;-72
2023/08/08 05:30:06;;;;;;;12.30;3.60;;;17.50;99.90;;;;;;5073840;28;20096;-68
2023/08/08 05:32:32;;;;;;;10.10;3.90;;;17.50;99.90;;;;;;5073978;28;20482;-68
2023/08/08 05:34:57;;;;;;;11.18;4.30;;;17.50;99.90;;;;;;5073540;28;20103;-72
2023/08/08 05:37:24;;;;;;;13.25;4.40;;;17.50;99.90;;;;;;5073978;28;20024;-70
2023/08/08 05:39:49;;;;;;;14.82;4.68;;;17.50;99.90;;;;;;5073750;28;20020;-68
2023/08/08 05:42:15;;;;;;;10.88;3.85;;;17.50;99.90;;;;;;5072637;28;20043;-68
2023/08/08 05:44:44;;;;;;;10.88;3.38;;;17.50;99.90;;;;;;5072031;28;20029;-68
2023/08/08 05:47:10;;;;;;;9.02;3.70;;;17.50;99.90;;;;;;5053565;28;20017;-73
2023/08/08 05:49:36;;;;;;;11.57;4.00;;;17.50;99.90;;;;;;5057337;28;20052;-67
2023/08/08 05:52:02;;;;;;;14.63;4.50;;;17.50;99.90;;;;;;5071061;28;20020;-73
2023/08/08 05:54:28;;;;;;;10.88;4.45;;;17.50;99.90;;;;;;5081356;28;20024;-73
2023/08/08 05:56:54;;;;;;;12.48;4.28;;;17.50;99.90;;;;;;5076960;28;20056;-70
2023/08/08 05:59:19;;;;;;;9.52;2.85;;;17.60;99.90;;;;;;5078902;28;20425;-69
2023/08/08 06:01:46;;;;;;;10.85;3.15;;;17.60;99.90;;;;;;5072674;28;20142;-69
2023/08/08 06:04:12;;;;;;;10.73;2.92;;;17.60;99.90;;;;;;5072300;28;20073;-68
2023/08/08 06:06:38;;;;;;;12.15;3.67;;;17.60;99.90;;;;;;5071626;28;20040;-73
2023/08/08 06:09:04;;;;;;;8.65;3.30;;;17.60;99.90;;;;;;5073406;28;20028;-69
2023/08/08 06:11:29;;;;;;;10.27;3.55;;;17.70;99.90;;;;;;5071240;28;20370;-67
2023/08/08 06:13:55;;;;;;;9.25;3.45;;;17.70;99.90;;;;;;5068653;28;20127;-68
2023/08/08 06:16:21;;;;;;;12.75;3.63;;;17.70;99.90;;;;;;5069821;28;20393;-68
2023/08/08 06:18:47;;;;;;;8.82;3.38;;;17.70;99.90;;;;;;5059147;28;20021;-69
2023/08/08 06:21:12;;;;;;;9.02;3.47;;;17.70;99.90;;;;;;5068082;28;20501;-68
2023/08/08 06:23:38;;;;;;;12.88;2.92;;;17.60;99.90;;;;;;5066312;28;20025;-69
2023/08/08 06:26:04;;;;;;;11.65;3.20;;;17.70;99.90;;;;;;5062903;28;20487;-72
2023/08/08 06:28:30;;;;;;;9.00;2.90;;;17.80;99.90;;;;;;5071022;28;20495;-69
2023/08/08 06:30:57;;;;;;;6.85;2.72;;;17.80;99.90;;;;;;5070334;28;20100;-70
2023/08/08 06:33:23;;;;;;;13.02;2.97;;;17.80;99.90;;;;;;5060167;28;20444;-70
2023/08/08 06:35:49;;;;;;;10.70;2.83;;;17.80;99.90;;;;;;5063743;28;20110;-79
2023/08/08 06:38:15;;;;;;;12.18;3.05;;;17.80;99.90;;;;;;5058666;28;20362;-69
2023/08/08 06:40:40;;;;;;;13.85;3.47;;;17.90;99.90;;;;;;5062889;28;20017;-69
2023/08/08 06:43:06;;;;;;;10.23;2.75;;;17.90;99.90;;;;;;5059848;28;20021;-69
2023/08/08 06:45:31;;;;;;;9.20;2.92;;;17.90;99.90;;;;;;5076264;28;20512;-69
2023/08/08 06:47:57;;;;;;;9.68;3.17;;;17.90;99.90;;;;;;5051535;28;20025;-70
2023/08/08 06:50:24;;;;;;;10.00;2.85;;;18.00;99.90;;;;;;5056082;28;20029;-69
2023/08/08 06:52:50;;;;;;;7.32;2.63;;;18.00;99.90;;;;;;5062923;28;20021;-72
2023/08/08 06:55:16;;;;;;;8.27;2.53;;;18.00;99.90;;;;;;5069400;28;20041;-70
2023/08/08 06:57:41;;;;;;;8.55;2.30;;;18.10;99.90;;;;;;5068895;28;20031;-69
2023/08/08 07:00:08;;;;;;;9.05;2.60;;;18.10;99.90;;;;;;5070036;28;20032;-69
2023/08/08 07:02:34;;;;;;;6.78;1.83;;;18.10;99.90;;;;;;5067545;28;20070;-72
2023/08/08 07:05:00;;;;;;;7.43;2.67;;;18.10;99.90;;;;;;5068665;28;20039;-69
2023/08/08 07:07:25;;;;;;;7.05;2.95;;;18.10;99.90;;;;;;5072133;28;20032;-70
2023/08/08 07:09:51;;;;;;;10.40;3.17;;;18.10;99.90;;;;;;5070841;28;20013;-70
2023/08/08 07:12:16;;;;;;;9.50;2.55;;;18.10;99.90;;;;;;5071505;28;20381;-68
2023/08/08 07:14:42;;;;;;;9.13;2.85;;;18.10;99.90;;;;;;5068917;28;20042;-69
2023/08/08 07:17:07;;;;;;;9.32;2.72;;;18.10;99.90;;;;;;5070382;28;20056;-69
2023/08/08 07:19:33;;;;;;;10.70;2.55;;;18.10;99.90;;;;;;5071238;28;20029;-78
2023/08/08 07:21:59;;;;;;;14.05;3.58;;;18.00;99.90;;;;;;5068834;28;20100;-69
2023/08/08 07:24:28;;;;;;;10.07;3.05;;;18.00;99.90;;;;;;5070098;28;20033;-71
2023/08/08 07:26:55;;;;;;;10.50;3.08;;;18.00;99.90;;;;;;5070063;28;20025;-68
2023/08/08 07:29:21;;;;;;;8.82;3.10;;;18.00;99.90;;;;;;5072106;28;20027;-69
2023/08/08 07:31:46;;;;;;;6.60;2.92;;;18.00;99.90;;;;;;5073545;28;20111;-69
2023/08/08 07:34:12;;;;;;;7.68;3.33;;;18.00;99.90;;;;;;5075470;28;20477;-68
2023/08/08 07:36:38;;;;;;;8.60;3.20;;;18.00;99.90;;;;;;5078964;28;20020;-68
2023/08/08 07:39:03;;;;;;;9.30;3.35;;;18.00;99.90;;;;;;5078270;28;20032;-68
2023/08/08 07:41:30;;;;;;;11.88;3.45;;;18.10;99.90;;;;;;5078540;28;20040;-71
2023/08/08 07:43:56;;;;;;;9.80;2.67;;;18.00;99.90;;;;;;5075547;28;20028;-69
2023/08/08 07:46:22;;;;;;;7.68;2.63;;;18.10;99.90;;;;;;5075983;28;20028;-70
2023/08/08 07:48:47;;;;;;;7.53;3.40;;;18.10;99.90;;;;;;5075344;28;20107;-70
2023/08/08 07:51:13;;;;;;;7.85;2.50;;;18.10;99.90;;;;;;5075397;28;20048;-69
2023/08/08 07:53:39;;;;;;;6.43;2.67;;;18.10;99.90;;;;;;5079649;28;20050;-69
2023/08/08 07:56:04;;;;;;;10.50;3.42;;;18.10;99.90;;;;;;5075586;28;20036;-68
2023/08/08 07:58:32;;;;;;;8.55;3.22;;;18.10;99.90;;;;;;5074644;28;20028;-69
2023/08/08 08:00:58;;;;;;;9.68;2.58;;;18.10;99.90;;;;;;5075613;28;20130;-69
2023/08/08 08:03:25;;;;;;;5.93;2.83;;;18.10;99.90;;;;;;5075353;28;20515;-76
2023/08/08 08:05:51;;;;;;;10.75;2.75;;;18.10;99.90;;;;;;5075279;28;20570;-77
2023/08/08 08:08:17;;;;;;;13.63;2.92;;;18.10;99.90;;;;;;5075548;28;20055;-72
2023/08/08 08:10:42;;;;;;;9.35;2.80;;;18.10;99.90;;;;;;5072991;28;20029;-69
2023/08/08 08:13:08;;;;;;;10.35;2.88;;;18.10;99.90;;;;;;5072913;28;20035;-71
2023/08/08 08:15:34;;;;;;;10.38;2.83;;;18.10;99.90;;;;;;5073542;28;20130;-79
2023/08/08 08:17:59;;;;;;;8.48;2.83;;;18.20;99.90;;;;;;5071244;28;20024;-68
2023/08/08 08:20:25;;;;;;;7.18;2.97;;;18.20;99.90;;;;;;5089574;28;20032;-68
2023/08/08 08:22:51;;;;;;;9.40;2.72;;;18.20;99.90;;;;;;5072568;28;20103;-71
2023/08/08 08:25:16;;;;;;;8.02;2.85;;;18.20;99.90;;;;;;5082820;28;20020;-69
2023/08/08 08:27:42;;;;;;;7.97;2.88;;;18.20;99.90;;;;;;5081157;28;20031;-67
2023/08/08 08:30:11;;;;;;;10.02;2.80;;;18.20;99.90;;;;;;5074373;28;20452;-67
2023/08/08 08:32:41;;;;;;;8.75;2.58;;;18.20;99.90;;;;;;5075241;28;20025;-68
2023/08/08 08:35:08;;;;;;;11.23;3.00;;;18.20;99.90;;;;;;5074587;28;20029;-70
2023/08/08 08:37:34;;;;;;;7.32;2.67;;;18.20;99.90;;;;;;5070433;28;20474;-68
2023/08/08 08:40:00;;;;;;;10.95;3.33;;;18.20;99.90;;;;;;5072066;28;20056;-70
2023/08/08 08:42:31;;;;;;;7.13;2.97;;;18.20;99.90;;;;;;5073418;28;20032;-68
2023/08/08 08:45:03;;;;;;;5.90;3.28;;;18.20;99.90;;;;;;5072115;28;20120;-71
2023/08/08 08:47:30;;;;;;;8.00;3.33;;;18.20;99.90;;;;;;5088520;28;20057;-72
2023/08/08 08:49:57;;;;;;;12.02;3.92;;;18.20;99.90;;;;;;5073034;28;20071;-75
2023/08/08 08:52:23;;;;;;;7.30;3.20;;;18.30;99.90;;;;;;5069955;28;20046;-69
2023/08/08 08:54:51;;;;;;;12.75;3.95;;;18.30;99.90;;;;;;5081432;28;20024;-72
2023/08/08 08:57:17;;;;;;;10.02;4.10;;;18.30;99.90;;;;;;5074735;28;20052;-77
2023/08/08 08:59:43;;;;;;;12.02;3.53;;;18.40;99.90;;;;;;5074262;28;20087;-78
2023/08/08 09:02:10;;;;;;;11.02;3.72;;;18.40;99.90;;;;;;5068064;28;20039;-71
2023/08/08 09:04:38;;;;;;;9.98;3.50;;;18.40;99.90;;;;;;5074059;28;20029;-78
2023/08/08 09:07:06;;;;;;;9.50;3.40;;;18.40;99.90;;;;;;5073230;28;20016;-79
2023/08/08 09:09:32;;;;;;;12.18;3.92;;;18.40;99.90;;;;;;5093548;28;20031;-70
2023/08/08 09:11:58;;;;;;;8.15;3.08;;;18.50;99.90;;;;;;5076542;28;20013;-71
2023/08/08 09:14:26;;;;;;;7.82;3.35;;;18.40;99.90;;;;;;5073531;28;20036;-77
2023/08/08 09:16:53;;;;;;;7.82;2.95;;;18.40;99.90;;;;;;5071639;28;20025;-68
2023/08/08 09:19:20;;;;;;;7.40;2.92;;;18.50;99.90;;;;;;5071864;28;20060;-68
2023/08/08 09:21:47;;;;;;;7.10;3.25;;;18.50;99.90;;;;;;5070424;28;20033;-67
2023/08/08 09:24:13;;;;;;;7.03;3.17;;;18.50;99.90;;;;;;5069239;28;20103;-68
2023/08/08 09:26:40;;;;;;;7.05;2.85;;;18.50;99.90;;;;;;5068690;28;20021;-68
2023/08/08 09:29:08;;;;;;;7.30;2.60;;;18.60;99.90;;;;;;5073156;28;20033;-80
2023/08/08 09:31:35;;;;;;;5.45;2.25;;;18.60;99.90;;;;;;5071108;28;20016;-68
2023/08/08 09:34:04;;;;;;;8.70;2.50;;;18.60;99.90;;;;;;5069583;28;20032;-67
2023/08/08 09:36:30;;;;;;;4.80;2.30;;;18.60;99.90;;;;;;5067362;28;20024;-68
2023/08/08 09:38:56;;;;;;;7.40;2.33;;;18.70;99.90;;;;;;5068134;28;20024;-75
2023/08/08 09:41:23;;;;;;;5.03;2.20;;;18.70;99.90;;;;;;5063377;28;20036;-80
2023/08/08 09:43:50;;;;;;;5.68;2.30;;;18.70;99.90;;;;;;5068335;28;20094;-68
2023/08/08 09:46:18;;;;;;;6.10;2.15;;;18.70;99.90;;;;;;5072095;28;20491;-68
2023/08/08 09:48:44;;;;;;;6.53;1.92;;;18.70;99.90;;;;;;5070421;28;20066;-67
2023/08/08 09:51:09;;;;;;;9.60;2.20;;;18.80;99.90;;;;;;5068292;28;20033;-76
2023/08/08 09:53:37;;;;;;;6.07;1.85;;;18.80;99.90;;;;;;5074922;28;20028;-73
2023/08/08 09:56:04;;;;;;;5.80;2.00;;;18.80;99.90;;;;;;5069909;28;20056;-69
2023/08/08 09:58:30;;;;;;;5.78;1.70;;;18.80;99.90;;;;;;5064806;28;20028;-70
2023/08/08 10:00:56;;;;;;;6.68;1.67;;;18.90;99.90;;;;;;5061209;28;20026;-69
2023/08/08 10:03:23;;;;;;;5.00;1.50;;;18.90;99.90;;;;;;5072420;28;20085;-68
2023/08/08 10:05:48;;;;;;;5.72;1.63;;;18.90;99.90;;;;;;5065533;28;20474;-73
2023/08/08 10:08:18;;;;;;;3.08;1.15;;;18.90;99.90;;;;;;5069010;28;20035;-76
2023/08/08 10:10:49;;;;;;;4.60;1.48;;;19.00;99.90;;;;;;5072221;28;20029;-76
2023/08/08 10:13:25;;;;;;;3.33;1.33;;;19.00;99.90;;;;;;5073775;28;20381;-70
2023/08/08 10:15:52;;;;;;;3.40;1.45;;;19.00;99.90;;;;;;5078339;28;20047;-68
2023/08/08 10:18:20;;;;;;;3.67;1.30;;;19.10;99.90;;;;;;5070730;28;20021;-68
2023/08/08 10:20:53;;;;;;;5.65;1.30;;;19.10;99.90;;;;;;5071823;28;20033;-70
2023/08/08 10:23:19;;;;;;;;;;;19.10;99.90;;;;;;5071514;28;20028;-70
2023/08/08 10:25:52;;;;;;;5.18;1.83;;;19.10;99.90;;;;;;5071728;28;19912;-68
2023/08/08 10:28:20;;;;;;;3.05;1.25;;;19.20;99.90;;;;;;5076120;28;20013;-68
2023/08/08 10:30:53;;;;;;;5.30;1.45;;;19.20;99.90;;;;;;5072088;28;20373;-68
2023/08/08 10:33:21;;;;;;;5.00;1.17;;;19.20;99.70;;;;;;5071704;28;20074;-72
2023/08/08 10:36:02;;;;;;;2.45;1.00;;;19.20;99.90;;;;;;5070953;28;20032;-68
2023/08/08 10:38:40;;;;;;;2.38;0.98;;;19.20;99.90;;;;;;5060312;28;20032;-68
2023/08/08 10:41:29;;;;;;;3.20;1.30;;;19.30;99.90;;;;;;5070040;28;21536;-68
2023/08/08 10:43:57;;;;;;;5.78;1.30;;;19.20;99.90;;;;;;5061032;28;20041;-71
2023/08/08 10:46:28;;;;;;;5.22;1.63;;;19.30;99.90;;;;;;5070945;28;20074;-71
2023/08/08 10:48:56;;;;;;;4.05;1.30;;;19.30;99.90;;;;;;5070492;28;20024;-68
2023/08/08 10:51:22;;;;;;;2.97;1.20;;;19.30;99.90;;;;;;5069282;28;20035;-67
2023/08/08 10:53:52;;;;;;;2.67;1.23;;;19.30;99.90;;;;;;5068396;28;20033;-67
2023/08/08 10:56:19;;;;;;;5.35;1.50;;;19.30;99.90;;;;;;5069106;28;20115;-67
2023/08/08 10:58:49;;;;;;;4.38;1.85;;;19.30;99.90;;;;;;5067890;28;20035;-67
2023/08/08 11:01:16;;;;;;;16.83;5.18;;;19.30;99.90;;;;;;5070077;28;20046;-68
2023/08/08 11:03:43;;;;;;;18.25;6.70;;;19.40;99.90;;;;;;5067686;28;20016;-68
2023/08/08 11:06:10;;;;;;;24.15;7.43;;;19.40;99.90;;;;;;5071477;28;20016;-67
2023/08/08 11:08:38;;;;;;;7.65;3.22;;;19.40;99.90;;;;;;5074501;28;20028;-68
2023/08/08 11:11:05;;;;;;;15.38;4.57;;;19.40;99.90;;;;;;5073695;28;20048;-68
2023/08/08 11:13:31;;;;;;;16.65;4.78;;;19.40;99.90;;;;;;5066580;28;20037;-68
2023/08/08 11:15:57;;;;;;;15.48;4.72;;;19.40;99.90;;;;;;5069311;28;20025;-68
2023/08/08 11:18:23;;;;;;;13.65;4.03;;;19.40;99.90;;;;;;5067622;28;20020;-68
2023/08/08 11:20:49;;;;;;;9.45;3.85;;;19.40;99.90;;;;;;5069795;28;20109;-68
2023/08/08 11:23:16;;;;;;;8.60;3.50;;;19.40;99.90;;;;;;5067236;28;20034;-67
2023/08/08 11:25:44;;;;;;;7.10;2.63;;;19.50;99.90;;;;;;5064082;28;20532;-68
2023/08/08 11:28:11;;;;;;;5.65;2.33;;;19.50;99.90;;;;;;5067862;28;20105;-68
2023/08/08 11:30:39;;;;;;;6.35;1.80;;;19.50;99.90;;;;;;5067427;28;20441;-68
2023/08/08 11:33:05;;;;;;;10.40;2.40;;;19.50;99.90;;;;;;5071828;28;20075;-68
2023/08/08 11:35:31;;;;;;;6.35;2.38;;;19.50;99.90;;;;;;5062795;28;20079;-68
2023/08/08 11:37:58;;;;;;;5.60;2.15;;;19.50;99.90;;;;;;5067302;28;20473;-68
2023/08/08 11:40:27;;;;;;;5.13;2.15;;;19.50;99.90;;;;;;5072451;28;20051;-68
2023/08/08 11:42:56;;;;;;;6.07;2.20;;;19.50;99.90;;;;;;5068259;28;20374;-75
2023/08/08 11:45:22;;;;;;;4.85;1.70;;;19.50;99.90;;;;;;5068484;28;20023;-68
2023/08/08 11:47:50;;;;;;;5.70;2.08;;;19.50;99.90;;;;;;5067887;28;20098;-70
2023/08/08 11:50:15;;;;;;;5.70;1.92;;;19.50;99.90;;;;;;5070886;28;20540;-70
2023/08/08 11:52:43;;;;;;;4.35;1.80;;;19.60;99.90;;;;;;5068449;28;20115;-67
2023/08/08 11:55:09;;;;;;;7.47;1.83;;;19.60;99.90;;;;;;5069744;28;20048;-68
2023/08/08 11:57:37;;;;;;;6.72;2.22;;;19.60;99.90;;;;;;5070913;28;20021;-67
2023/08/08 12:00:08;;;;;;;6.60;2.10;;;19.60;99.90;;;;;;5073476;28;20055;-69
2023/08/08 12:02:35;;;;;;;5.10;2.23;;;19.60;99.90;;;;;;5074582;28;20074;-67
2023/08/08 12:05:08;;;;;;;7.30;2.28;;;19.70;99.90;;;;;;5073725;28;20266;-68
2023/08/08 12:07:35;;;;;;;4.38;1.83;;;19.70;99.90;;;;;;5059758;28;20020;-68
2023/08/08 12:10:04;;;;;;;3.75;1.85;;;19.70;99.90;;;;;;5074375;28;20021;-70
2023/08/08 12:12:36;;;;;;;5.15;1.80;;;19.80;99.90;;;;;;5074331;28;20029;-77
2023/08/08 12:15:09;;;;;;;4.25;1.52;;;19.80;99.90;;;;;;5068386;28;20024;-68
2023/08/08 12:17:35;;;;;;;;;;;19.80;99.90;;;;;;5063993;28;20089;-68
2023/08/08 12:20:05;;;;;;;4.47;1.85;;;19.80;99.90;;;;;;5063188;28;19917;-68
2023/08/08 12:22:31;;;;;;;3.38;1.50;;;19.90;99.80;;;;;;5068493;28;20423;-67
2023/08/08 12:24:56;;;;;;;7.18;1.98;;;19.80;99.30;;;;;;5067718;28;20024;-68
2023/08/08 12:27:22;;;;;;;3.42;1.48;;;19.80;99.10;;;;;;5076785;28;20031;-68
2023/08/08 12:29:48;;;;;;;4.50;1.50;;;19.80;99.00;;;;;;5081798;28;20028;-68
2023/08/08 12:32:13;;;;;;;5.78;1.67;;;19.90;98.90;;;;;;5074373;28;20029;-68
2023/08/08 12:34:39;;;;;;;4.57;1.60;;;19.90;98.80;;;;;;5072985;28;20478;-68
2023/08/08 12:37:04;;;;;;;4.07;1.45;;;19.90;98.40;;;;;;5071701;28;20040;-68
2023/08/08 12:39:30;;;;;;;6.03;1.98;;;20.00;98.20;;;;;;5070895;28;20029;-69